createdAt,value
2019-01-17T00:01:49.038Z,39.10
2019-01-17T00:04:41.256Z,40.23
2019-01-17T00:07:19.002Z,35.50
2019-01-17T00:10:07.343Z,36.53
2019-01-17T00:12:55.413Z,38.30
2019-01-17T00:16:03.086Z,37.20
2019-01-17T00:18:52.286Z,39.97
2019-01-17T00:21:47.340Z,38.43
2019-01-17T00:24:27.456Z,37.60
2019-01-17T00:27:17.020Z,42.17
2019-01-17T00:30:01.012Z,44.60
2019-01-17T00:33:02.268Z,39.10
2019-01-17T00:35:55.122Z,42.03
2019-01-17T00:38:53.263Z,46.47
2019-01-17T00:41:48.679Z,41.23
2019-01-17T00:44:38.876Z,43.60
2019-01-17T00:47:28.167Z,41.90
2019-01-17T00:50:16.826Z,42.37
2019-01-17T00:53:00.701Z,47.70
2019-01-17T00:55:51.182Z,45.57
2019-01-17T00:58:46.299Z,47.57
2019-01-17T01:01:36.490Z,42.13
2019-01-17T01:04:24.391Z,46.30
2019-01-17T01:07:16.729Z,47.07
2019-01-17T01:10:09.012Z,48.83
2019-01-17T01:13:01.358Z,53.37
2019-01-17T01:15:51.216Z,45.80
2019-01-17T01:18:36.128Z,51.10
2019-01-17T01:21:16.090Z,45.47
2019-01-17T01:24:04.154Z,49.03
2019-01-17T01:26:51.854Z,51.47
2019-01-17T01:29:51.107Z,44.63
2019-01-17T01:32:36.536Z,48.07
2019-01-17T01:35:35.473Z,47.90
2019-01-17T01:38:28.150Z,44.67
2019-01-17T01:41:25.868Z,47.10
2019-01-17T01:44:17.875Z,47.27
2019-01-17T01:47:07.173Z,46.60
2019-01-17T01:50:08.399Z,46.50
2019-01-17T01:52:52.815Z,41.63
2019-01-17T01:55:23.505Z,45.33
2019-01-17T01:57:53.830Z,43.97
2019-01-17T02:00:24.234Z,47.37
2019-01-17T02:02:54.504Z,50.00
2019-01-17T02:05:25.005Z,45.30
2019-01-17T02:07:55.359Z,48.17
2019-01-17T02:10:26.092Z,51.10
2019-01-17T02:12:56.519Z,45.37
2019-01-17T02:15:26.786Z,50.57
2019-01-17T02:17:57.077Z,48.07
2019-01-17T02:20:27.386Z,48.53
2019-01-17T02:22:57.718Z,49.37
2019-01-17T02:25:28.267Z,48.20
2019-01-17T02:27:58.755Z,45.83
2019-01-17T02:30:29.099Z,50.97
2019-01-17T02:32:59.442Z,47.67
2019-01-17T02:35:29.764Z,42.27
2019-01-17T02:38:00.145Z,46.97
2019-01-17T02:40:30.299Z,51.13
2019-01-17T02:43:00.701Z,51.73
2019-01-17T02:45:31.048Z,46.03
2019-01-17T02:48:01.518Z,52.10
2019-01-17T02:50:32.967Z,50.77
2019-01-17T02:53:03.449Z,52.47
2019-01-17T02:55:33.815Z,48.97
2019-01-17T02:58:04.155Z,51.03
2019-01-17T03:00:34.429Z,53.80
2019-01-17T03:03:04.753Z,54.60
2019-01-17T03:05:34.989Z,47.40
2019-01-17T03:08:05.310Z,54.30
2019-01-17T03:10:35.540Z,57.83
2019-01-17T03:13:05.967Z,54.70
2019-01-17T03:15:36.443Z,53.90
2019-01-17T03:18:06.886Z,56.60
2019-01-17T03:20:36.988Z,56.10
2019-01-17T03:23:07.291Z,56.57
2019-01-17T03:25:37.561Z,53.27
2019-01-17T03:28:07.917Z,56.17
2019-01-17T03:30:38.066Z,60.87
2019-01-17T03:33:08.461Z,55.67
2019-01-17T03:35:38.737Z,55.33
2019-01-17T03:38:09.036Z,57.43
2019-01-17T03:40:39.337Z,58.67
2019-01-17T03:43:09.706Z,61.33
2019-01-17T03:45:39.988Z,58.43
2019-01-17T03:48:10.345Z,57.47
2019-01-17T03:50:40.647Z,64.17
2019-01-17T03:53:10.962Z,62.13
2019-01-17T03:55:41.402Z,56.43
2019-01-17T03:58:11.714Z,59.00
2019-01-17T04:00:41.983Z,60.20
2019-01-17T04:03:12.363Z,57.10
2019-01-17T04:05:42.594Z,54.77
2019-01-17T04:08:12.870Z,57.53
2019-01-17T04:10:43.159Z,60.67
2019-01-17T04:13:13.595Z,57.90
2019-01-17T04:15:43.863Z,56.57
2019-01-17T04:18:14.162Z,60.53
2019-01-17T04:20:44.436Z,56.57
2019-01-17T04:23:14.754Z,54.00
2019-01-17T04:25:44.965Z,51.10
2019-01-17T04:28:15.256Z,50.57
2019-01-17T04:30:45.525Z,51.83
2019-01-17T04:33:15.913Z,55.17
2019-01-17T04:35:46.222Z,53.63
2019-01-17T04:38:16.546Z,50.20
2019-01-17T04:40:46.837Z,50.17
2019-01-17T04:43:17.170Z,53.43
2019-01-17T04:45:47.547Z,50.83
2019-01-17T04:48:17.868Z,51.37
2019-01-17T04:50:48.175Z,50.03
2019-01-17T04:53:18.468Z,45.13
2019-01-17T04:55:51.259Z,47.40
2019-01-17T04:58:22.871Z,45.50
2019-01-17T05:00:53.093Z,52.63
2019-01-17T05:03:23.510Z,49.40
2019-01-17T05:05:53.766Z,47.97
2019-01-17T05:08:24.115Z,46.30
2019-01-17T05:10:54.346Z,44.57
2019-01-17T05:13:24.658Z,46.83
2019-01-17T05:15:54.992Z,44.37
2019-01-17T05:18:25.319Z,52.43
2019-01-17T05:20:55.632Z,44.23
2019-01-17T05:23:25.936Z,44.93
2019-01-17T05:25:56.242Z,40.47
2019-01-17T05:28:26.517Z,46.50
2019-01-17T05:30:56.794Z,46.30
2019-01-17T05:33:27.065Z,40.30
2019-01-17T05:35:57.361Z,41.23
2019-01-17T05:38:27.706Z,35.83
2019-01-17T05:40:58.061Z,39.00
2019-01-17T05:43:29.425Z,39.33
2019-01-17T05:45:59.895Z,36.47
2019-01-17T05:48:30.255Z,35.53
2019-01-17T05:51:00.629Z,40.60
2019-01-17T05:53:30.909Z,40.57
2019-01-17T05:56:01.245Z,37.50
2019-01-17T05:58:31.533Z,32.73
2019-01-17T06:01:01.278Z,34.97
2019-01-17T06:03:31.507Z,32.97
2019-01-17T06:06:01.858Z,36.93
2019-01-17T06:08:32.205Z,38.90
2019-01-17T06:11:02.507Z,37.63
2019-01-17T06:13:33.109Z,35.93
2019-01-17T06:16:04.047Z,35.40
2019-01-17T06:18:35.812Z,33.73
2019-01-17T06:21:06.219Z,36.27
2019-01-17T06:23:36.714Z,28.43
2019-01-17T06:26:07.013Z,32.63
2019-01-17T06:28:37.579Z,30.83
2019-01-17T06:31:08.070Z,29.27
2019-01-17T06:33:38.503Z,29.20
2019-01-17T06:36:08.816Z,32.67
2019-01-17T06:38:39.107Z,32.70
2019-01-17T06:41:09.582Z,29.93
2019-01-17T06:43:40.216Z,32.53
2019-01-17T06:46:10.531Z,32.10
2019-01-17T06:48:40.853Z,29.83
2019-01-17T06:51:11.173Z,28.80
2019-01-17T06:53:41.395Z,26.67
2019-01-17T06:56:12.915Z,29.70
2019-01-17T06:58:43.218Z,30.57
2019-01-17T07:01:13.449Z,26.30
2019-01-17T07:03:43.926Z,29.47
2019-01-17T07:06:14.376Z,30.27
2019-01-17T07:08:44.702Z,34.37
2019-01-17T07:11:15.027Z,31.20
2019-01-17T07:13:45.286Z,26.70
2019-01-17T07:16:15.626Z,31.23
2019-01-17T07:18:46.275Z,28.40
2019-01-17T07:21:16.561Z,27.13
2019-01-17T07:23:46.876Z,27.97
2019-01-17T07:26:17.150Z,31.03
2019-01-17T07:28:47.346Z,26.43
2019-01-17T07:31:17.664Z,27.33
2019-01-17T07:33:47.986Z,30.93
2019-01-17T07:36:18.273Z,28.97
2019-01-17T07:38:48.595Z,30.50
2019-01-17T07:41:18.852Z,26.03
2019-01-17T07:43:49.178Z,35.13
2019-01-17T07:46:19.432Z,31.37
2019-01-17T07:48:49.830Z,28.57
2019-01-17T07:51:20.718Z,27.23
2019-01-17T07:53:51.044Z,25.37
2019-01-17T07:56:22.725Z,25.43
2019-01-17T07:58:58.622Z,24.60
2019-01-17T08:01:28.923Z,21.50
2019-01-17T08:03:59.199Z,25.00
2019-01-17T08:06:29.484Z,23.93
2019-01-17T08:08:59.828Z,21.87
2019-01-17T08:11:30.130Z,23.67
2019-01-17T08:14:00.587Z,23.27
2019-01-17T08:16:30.950Z,20.17
2019-01-17T08:19:01.182Z,24.50
2019-01-17T08:21:31.439Z,21.93
2019-01-17T08:24:01.762Z,24.23
2019-01-17T08:26:32.228Z,21.73
2019-01-17T08:29:02.596Z,24.03
2019-01-17T08:31:32.868Z,20.83
2019-01-17T08:34:03.147Z,21.93
2019-01-17T08:36:33.518Z,19.50
2019-01-17T08:39:05.331Z,18.80
2019-01-17T08:41:35.728Z,21.43
2019-01-17T08:44:06.247Z,20.33
2019-01-17T08:46:36.550Z,19.10
2019-01-17T08:49:06.898Z,17.40
2019-01-17T08:51:37.282Z,17.43
2019-01-17T08:54:07.553Z,20.43
2019-01-17T08:56:38.062Z,18.53
2019-01-17T08:59:08.294Z,20.97
2019-01-17T09:01:38.641Z,21.30
2019-01-17T09:04:08.963Z,22.23
2019-01-17T09:06:39.269Z,23.83
2019-01-17T09:09:10.604Z,18.93
2019-01-17T09:11:40.872Z,23.67
2019-01-17T09:14:11.248Z,22.40
2019-01-17T09:16:41.573Z,25.03
2019-01-17T09:21:53.955Z,20.60
2019-01-17T09:24:24.293Z,23.03
2019-01-17T09:26:54.551Z,20.83
2019-01-17T09:29:24.905Z,18.33
2019-01-17T09:31:55.137Z,27.20
2019-01-17T09:34:25.478Z,22.10
2019-01-17T09:36:55.683Z,23.17
2019-01-17T09:39:25.979Z,21.63
2019-01-17T09:41:56.222Z,24.50
2019-01-17T09:44:26.579Z,21.23
2019-01-17T09:46:57.209Z,22.60
2019-01-17T09:49:27.609Z,21.43
2019-01-17T09:51:57.919Z,19.30
2019-01-17T09:54:28.251Z,23.23
2019-01-17T09:56:58.607Z,23.37
2019-01-17T09:59:28.937Z,23.17
2019-01-17T10:01:59.253Z,23.03
2019-01-17T10:04:29.549Z,22.97
2019-01-17T10:06:59.870Z,23.70
2019-01-17T10:09:30.643Z,24.23
2019-01-17T10:12:00.997Z,22.23
2019-01-17T10:14:31.393Z,23.10
2019-01-17T10:17:33.187Z,21.73
2019-01-17T10:20:39.435Z,19.67
2019-01-17T10:23:25.045Z,21.53
2019-01-17T10:26:09.125Z,20.37
2019-01-17T10:29:15.038Z,19.20
2019-01-17T10:32:41.999Z,21.57
2019-01-17T10:35:59.091Z,23.67
2019-01-17T10:39:00.203Z,18.40
2019-01-17T10:41:59.401Z,23.47
2019-01-17T10:45:22.924Z,28.00
2019-01-17T10:48:49.566Z,23.30
2019-01-17T10:51:57.765Z,20.60
2019-01-17T10:54:58.851Z,24.30
2019-01-17T10:57:35.229Z,24.53
2019-01-17T11:03:58.596Z,22.80
2019-01-17T11:06:54.293Z,26.27
2019-01-17T11:10:07.364Z,22.07
2019-01-17T11:13:15.833Z,21.57
2019-01-17T11:16:28.794Z,20.67
2019-01-17T11:19:10.902Z,18.80
2019-01-17T11:22:09.838Z,23.33
2019-01-17T11:25:19.778Z,18.73
2019-01-17T11:28:31.059Z,19.77
2019-01-17T11:31:47.304Z,22.03
2019-01-17T11:34:59.607Z,23.40
2019-01-17T11:38:11.028Z,24.93
2019-01-17T11:41:21.309Z,22.73
2019-01-17T11:44:31.643Z,23.17
2019-01-17T11:47:37.136Z,22.67
2019-01-17T11:50:53.082Z,18.70
2019-01-17T11:53:46.010Z,25.83
2019-01-17T11:56:53.097Z,23.93
2019-01-17T11:59:35.353Z,20.40
2019-01-17T12:02:49.558Z,24.50
2019-01-17T12:05:19.847Z,21.37
2019-01-17T12:07:50.414Z,26.10
2019-01-17T12:10:20.660Z,25.00
2019-01-17T12:12:51.622Z,27.17
2019-01-17T12:15:21.880Z,22.47
2019-01-17T12:17:52.234Z,22.00
2019-01-17T12:20:22.566Z,23.97
2019-01-17T12:22:52.814Z,25.47
2019-01-17T12:25:23.132Z,21.73
2019-01-17T12:27:54.695Z,23.40
2019-01-17T12:30:25.008Z,23.10
2019-01-17T12:32:55.325Z,23.70
2019-01-17T12:35:25.675Z,23.20
2019-01-17T12:37:56.121Z,25.87
2019-01-17T12:40:26.479Z,22.93
2019-01-17T12:42:56.663Z,25.80
2019-01-17T12:45:27.270Z,24.60
2019-01-17T12:47:57.561Z,23.33
2019-01-17T12:50:28.055Z,26.87
2019-01-17T12:52:58.411Z,25.70
2019-01-17T12:55:28.835Z,24.87
2019-01-17T12:57:59.215Z,25.63
2019-01-17T13:00:29.605Z,25.37
2019-01-17T13:02:59.986Z,25.90
2019-01-17T13:05:30.335Z,27.50
2019-01-17T13:08:00.570Z,21.40
2019-01-17T13:10:31.065Z,25.63
2019-01-17T13:13:01.907Z,23.90
2019-01-17T13:15:32.339Z,28.40
2019-01-17T13:18:02.671Z,29.73
2019-01-17T13:20:33.087Z,27.37
2019-01-17T13:23:03.361Z,27.67
2019-01-17T13:25:33.765Z,27.50
2019-01-17T13:28:04.183Z,26.73
2019-01-17T13:30:34.515Z,29.67
2019-01-17T13:33:05.736Z,26.80
2019-01-17T13:35:36.079Z,28.87
2019-01-17T13:38:06.461Z,28.83
2019-01-17T13:40:36.817Z,26.23
2019-01-17T13:43:08.151Z,29.90
2019-01-17T13:45:38.578Z,27.90
2019-01-17T13:48:08.924Z,25.60
2019-01-17T13:50:39.214Z,27.50
2019-01-17T13:53:09.500Z,25.10
2019-01-17T13:55:39.943Z,27.83
2019-01-17T13:58:10.308Z,26.73
2019-01-17T14:00:40.956Z,29.30
2019-01-17T14:03:11.240Z,26.87
2019-01-17T14:05:41.656Z,25.13
2019-01-17T14:08:11.943Z,27.73
2019-01-17T14:10:42.407Z,26.27
2019-01-17T14:13:12.717Z,24.30
2019-01-17T14:15:43.118Z,27.83
2019-01-17T14:18:13.651Z,27.03
2019-01-17T14:20:43.890Z,28.00
2019-01-17T14:23:14.317Z,29.13
2019-01-17T14:25:44.643Z,27.87
2019-01-17T14:28:14.966Z,29.03
2019-01-17T14:30:45.338Z,31.30
2019-01-17T14:33:15.749Z,28.20
2019-01-17T14:35:45.430Z,27.03
2019-01-17T14:38:15.745Z,30.00
2019-01-17T14:40:46.061Z,31.83
2019-01-17T14:43:16.409Z,33.33
2019-01-17T14:45:46.746Z,26.57
2019-01-17T14:48:17.156Z,31.20
2019-01-17T14:50:47.396Z,28.97
2019-01-17T14:53:17.732Z,28.10
2019-01-17T14:55:48.165Z,28.77
2019-01-17T14:58:18.528Z,33.50
2019-01-17T15:00:48.912Z,26.13
2019-01-17T15:03:19.335Z,29.60
2019-01-17T15:05:49.864Z,27.03
2019-01-17T15:08:22.111Z,24.83
2019-01-17T15:10:53.360Z,31.87
2019-01-17T15:13:23.944Z,31.97
2019-01-17T15:15:54.305Z,31.87
2019-01-17T15:18:24.666Z,27.00
2019-01-17T15:20:55.045Z,27.17
2019-01-17T15:23:25.674Z,28.73
2019-01-17T15:25:56.124Z,27.80
2019-01-17T15:28:26.445Z,26.60
2019-01-17T15:30:59.920Z,29.63
2019-01-17T15:33:30.297Z,34.30
2019-01-17T15:36:00.637Z,34.90
2019-01-17T15:38:31.131Z,29.00
2019-01-17T15:41:01.524Z,31.57
2019-01-17T15:43:31.837Z,30.00
2019-01-17T15:46:02.139Z,32.43
2019-01-17T15:48:32.447Z,35.47
2019-01-17T15:51:02.949Z,34.77
2019-01-17T15:53:33.310Z,35.20
2019-01-17T15:56:03.675Z,36.33
2019-01-17T15:58:34.069Z,36.37
2019-01-17T16:01:05.413Z,35.53
2019-01-17T16:03:35.806Z,38.30
2019-01-17T16:06:06.172Z,33.43
2019-01-17T16:08:36.411Z,37.23
2019-01-17T16:11:06.712Z,39.07
2019-01-17T16:13:37.035Z,31.20
2019-01-17T16:16:07.339Z,35.20
2019-01-17T16:18:38.029Z,35.83
2019-01-17T16:21:08.323Z,35.00
2019-01-17T16:23:38.739Z,32.43
2019-01-17T16:26:09.047Z,36.70
2019-01-17T16:28:39.393Z,37.87
2019-01-17T16:31:09.818Z,37.23
2019-01-17T16:33:40.233Z,32.63
2019-01-17T16:36:10.991Z,31.97
2019-01-17T16:38:46.683Z,34.10
2019-01-17T16:41:17.046Z,34.57
2019-01-17T16:43:47.806Z,34.43
2019-01-17T16:46:18.592Z,31.97
2019-01-17T16:48:49.089Z,36.30
2019-01-17T16:51:19.480Z,42.10
2019-01-17T16:53:49.845Z,37.47
2019-01-17T16:56:21.571Z,42.57
2019-01-17T16:58:51.907Z,32.53
2019-01-17T17:01:22.586Z,37.90
2019-01-17T17:03:53.205Z,42.20
2019-01-17T17:06:23.497Z,34.07
2019-01-17T17:08:53.897Z,35.33
2019-01-17T17:11:24.336Z,37.20
2019-01-17T17:13:54.817Z,34.93
2019-01-17T17:16:25.382Z,36.73
2019-01-17T17:18:55.823Z,39.20
2019-01-17T17:21:26.267Z,41.53
2019-01-17T17:23:56.739Z,46.40
2019-01-17T17:26:27.203Z,38.23
2019-01-17T17:28:58.715Z,38.50
2019-01-17T17:31:29.378Z,35.13
2019-01-17T17:34:00.049Z,37.10
2019-01-17T17:36:30.781Z,36.23
2019-01-17T17:39:01.109Z,33.90
2019-01-17T17:41:33.204Z,38.83
2019-01-17T17:44:03.513Z,41.80
2019-01-17T17:46:33.908Z,38.97
2019-01-17T17:49:07.312Z,41.43
2019-01-17T17:51:37.932Z,36.07
2019-01-17T17:54:08.356Z,37.03
2019-01-17T17:56:38.822Z,37.00
2019-01-17T17:59:09.272Z,41.03
2019-01-17T18:01:42.204Z,36.90
2019-01-17T18:04:12.470Z,38.43
2019-01-17T18:06:42.674Z,42.97
2019-01-17T18:09:13.024Z,36.43
2019-01-17T18:11:46.400Z,39.97
2019-01-17T18:14:16.800Z,35.13
2019-01-17T18:16:47.242Z,36.67
2019-01-17T18:19:17.652Z,39.07
2019-01-17T18:21:47.990Z,36.30
2019-01-17T18:24:18.459Z,42.07
2019-01-17T18:26:50.192Z,42.80
2019-01-17T18:29:20.600Z,34.10
2019-01-17T18:31:51.990Z,37.57
2019-01-17T18:34:22.290Z,37.97
2019-01-17T18:36:52.639Z,38.53
2019-01-17T18:39:25.787Z,35.83
2019-01-17T18:41:57.241Z,34.27
2019-01-17T18:44:27.765Z,38.63
2019-01-17T18:47:00.402Z,39.83
2019-01-17T18:49:30.806Z,38.43
2019-01-17T18:52:01.206Z,45.40
2019-01-17T18:54:31.534Z,40.60
2019-01-17T18:57:01.977Z,36.53
2019-01-17T18:59:32.456Z,44.77
2019-01-17T19:02:02.884Z,36.90
2019-01-17T19:04:33.456Z,42.60
2019-01-17T19:07:05.157Z,37.47
2019-01-17T19:09:35.692Z,35.37
2019-01-17T19:12:06.505Z,41.13
2019-01-17T19:14:36.889Z,39.00
2019-01-17T19:17:07.364Z,35.57
2019-01-17T19:19:37.940Z,37.30
2019-01-17T19:22:08.626Z,36.30
2019-01-17T19:24:39.312Z,37.67
2019-01-17T19:27:09.912Z,39.83
2019-01-17T19:29:43.012Z,36.77
2019-01-17T19:32:13.528Z,39.13
2019-01-17T19:34:43.869Z,35.90
2019-01-17T19:37:14.229Z,38.40
2019-01-17T19:39:44.574Z,38.63
2019-01-17T19:42:14.990Z,38.60
2019-01-17T19:44:45.695Z,37.10
2019-01-17T19:47:16.026Z,39.57
2019-01-17T19:49:46.553Z,36.33
2019-01-17T19:52:16.945Z,34.90
2019-01-17T19:54:47.405Z,36.07
2019-01-17T19:57:17.774Z,32.30
2019-01-17T19:59:48.234Z,33.10
2019-01-17T20:02:18.639Z,31.83
2019-01-17T20:04:49.245Z,32.50
2019-01-17T20:07:19.922Z,35.47
2019-01-17T20:09:50.474Z,35.23
2019-01-17T20:12:21.212Z,30.47
2019-01-17T20:14:51.528Z,35.87
2019-01-17T20:17:22.158Z,34.03
2019-01-17T20:19:54.575Z,37.37
2019-01-17T20:22:24.907Z,33.90
2019-01-17T20:24:55.286Z,39.57
2019-01-17T20:27:25.753Z,34.43
2019-01-17T20:29:56.106Z,33.60
2019-01-17T20:32:26.721Z,34.43
2019-01-17T20:34:57.043Z,33.87
2019-01-17T20:37:27.498Z,32.60
2019-01-17T20:40:01.146Z,31.07
2019-01-17T20:42:32.008Z,31.47
2019-01-17T20:45:02.487Z,32.00
2019-01-17T20:47:32.833Z,31.70
2019-01-17T20:50:03.415Z,33.17
2019-01-17T20:52:34.100Z,31.03
2019-01-17T20:55:04.794Z,30.67
2019-01-17T20:57:35.657Z,31.97
2019-01-17T21:00:17.792Z,32.37
2019-01-17T21:02:48.247Z,30.93
2019-01-17T21:05:25.097Z,29.63
2019-01-17T21:07:55.534Z,30.93
2019-01-17T21:10:26.023Z,28.03
2019-01-17T21:12:56.473Z,34.00
2019-01-17T21:15:26.914Z,35.47
2019-01-17T21:17:57.367Z,33.10
2019-01-17T21:20:27.735Z,41.03
2019-01-17T21:22:58.251Z,38.90
2019-01-17T21:25:28.607Z,36.43
2019-01-17T21:27:59.121Z,38.37
2019-01-17T21:30:29.539Z,41.53
2019-01-17T21:33:06.571Z,36.20
2019-01-17T21:35:31.792Z,37.40
2019-01-17T21:38:02.103Z,44.63
2019-01-17T21:40:32.403Z,38.67
2019-01-17T21:43:02.689Z,46.37
2019-01-17T21:45:33.017Z,37.57
2019-01-17T21:48:03.553Z,42.37
2019-01-17T21:50:33.882Z,43.50
2019-01-17T21:53:04.586Z,42.27
2019-01-17T21:55:35.110Z,43.67
2019-01-17T21:58:05.748Z,45.07
2019-01-17T22:00:35.976Z,43.50
2019-01-17T22:03:06.450Z,45.10
2019-01-17T22:05:36.954Z,44.10
2019-01-17T22:08:07.307Z,43.73
2019-01-17T22:10:39.080Z,47.83
2019-01-17T22:13:09.390Z,44.87
2019-01-17T22:15:39.791Z,41.53
2019-01-17T22:18:10.127Z,43.30
2019-01-17T22:20:40.462Z,47.30
2019-01-17T22:23:10.718Z,46.23
2019-01-17T22:25:41.026Z,43.53
2019-01-17T22:28:11.352Z,51.50
2019-01-17T22:30:41.768Z,41.93
2019-01-17T22:33:12.298Z,44.90
2019-01-17T22:35:42.644Z,34.20
2019-01-17T22:38:12.334Z,33.13
2019-01-17T22:40:42.579Z,32.17
2019-01-17T22:43:13.162Z,37.37
2019-01-17T22:45:43.442Z,39.03
2019-01-17T22:48:13.784Z,37.83
2019-01-17T22:50:44.181Z,37.93
2019-01-17T22:53:14.545Z,38.17
2019-01-17T22:55:44.778Z,41.13
2019-01-17T22:58:15.116Z,39.07
2019-01-17T23:00:56.929Z,38.13
2019-01-17T23:03:45.287Z,39.47
2019-01-17T23:06:15.662Z,37.37
2019-01-17T23:08:51.101Z,33.17
2019-01-17T23:11:21.382Z,37.80
2019-01-17T23:13:52.014Z,36.00
2019-01-17T23:16:22.259Z,36.30
2019-01-17T23:18:52.554Z,37.73
2019-01-17T23:21:22.831Z,37.60
2019-01-17T23:23:53.239Z,33.43
2019-01-17T23:26:23.436Z,39.70
2019-01-17T23:28:53.692Z,33.77
2019-01-17T23:31:24.642Z,39.70
2019-01-17T23:33:55.160Z,39.77
2019-01-17T23:36:25.461Z,38.70
2019-01-17T23:38:55.782Z,43.17
2019-01-17T23:41:27.206Z,39.03
2019-01-17T23:43:57.520Z,45.97
2019-01-17T23:46:27.779Z,43.07
2019-01-17T23:48:58.131Z,45.27
2019-01-17T23:51:28.355Z,47.13
2019-01-17T23:53:58.734Z,46.50
2019-01-17T23:56:28.993Z,46.37
2019-01-17T23:58:59.306Z,47.73
